createdAt,value
2016-12-26T00:00:05.805Z,22.61
2016-12-26T00:01:06.430Z,22.57
2016-12-26T00:02:06.130Z,22.49
2016-12-26T00:03:05.883Z,22.52
2016-12-26T00:04:05.782Z,22.47
2016-12-26T00:05:06.952Z,22.52
2016-12-26T00:06:05.477Z,22.54
2016-12-26T00:07:05.905Z,22.54
2016-12-26T00:08:06.164Z,22.57
2016-12-26T00:09:05.811Z,22.49
2016-12-26T00:10:05.503Z,22.55
2016-12-26T00:11:05.928Z,22.57
2016-12-26T00:12:05.565Z,22.58
2016-12-26T00:13:05.830Z,22.57
2016-12-26T00:14:05.840Z,22.58
2016-12-26T00:15:05.899Z,22.45
2016-12-26T00:16:06.789Z,22.6
2016-12-26T00:17:06.174Z,22.52
2016-12-26T00:18:06.227Z,22.51
2016-12-26T00:19:05.869Z,22.51
2016-12-26T00:20:05.878Z,22.51
2016-12-26T00:21:06.249Z,22.51
2016-12-26T00:22:06.255Z,22.55
2016-12-26T00:23:06.208Z,22.47
2016-12-26T00:24:06.259Z,22.51
2016-12-26T00:25:05.914Z,22.51
2016-12-26T00:26:06.572Z,22.45
2016-12-26T00:27:06.870Z,22.49
2016-12-26T00:28:06.236Z,22.49
2016-12-26T00:29:06.244Z,22.47
2016-12-26T00:30:05.937Z,22.49
2016-12-26T00:31:06.072Z,22.47
2016-12-26T00:32:05.684Z,22.51
2016-12-26T00:33:06.058Z,22.54
2016-12-26T00:34:06.271Z,22.49
2016-12-26T00:35:05.967Z,22.51
2016-12-26T00:36:06.357Z,22.51
2016-12-26T00:37:05.662Z,22.62
2016-12-26T00:38:07.405Z,22.54
2016-12-26T00:39:05.674Z,22.51
2016-12-26T00:40:06.415Z,22.49
2016-12-26T00:41:06.002Z,22.52
2016-12-26T00:42:06.111Z,22.46
2016-12-26T00:43:06.014Z,22.46
2016-12-26T00:44:06.387Z,22.47
2016-12-26T00:45:06.127Z,22.54
2016-12-26T00:46:06.089Z,22.46
2016-12-26T00:47:06.404Z,22.46
2016-12-26T00:48:05.787Z,22.57
2016-12-26T00:49:07.467Z,22.49
2016-12-26T00:50:05.744Z,22.47
2016-12-26T00:51:06.114Z,22.49
2016-12-26T00:52:06.118Z,22.46
2016-12-26T00:53:06.173Z,22.52
2016-12-26T00:54:06.399Z,22.46
2016-12-26T00:55:06.398Z,22.51
2016-12-26T00:56:06.409Z,22.42
2016-12-26T00:57:06.150Z,22.45
2016-12-26T00:58:06.466Z,22.42
2016-12-26T00:59:06.431Z,22.43
2016-12-26T01:00:07.483Z,22.57
2016-12-26T01:01:06.491Z,22.55
2016-12-26T01:02:05.866Z,22.42
2016-12-26T01:03:06.138Z,22.46
2016-12-26T01:04:06.555Z,22.46
2016-12-26T01:05:05.888Z,22.54
2016-12-26T01:06:05.842Z,22.45
2016-12-26T01:07:06.157Z,22.46
2016-12-26T01:08:06.580Z,22.45
2016-12-26T01:09:05.862Z,22.45
2016-12-26T01:10:06.644Z,22.49
2016-12-26T01:11:06.992Z,22.52
2016-12-26T01:12:06.238Z,22.46
2016-12-26T01:13:06.251Z,22.6
2016-12-26T01:14:06.251Z,22.52
2016-12-26T01:15:05.949Z,22.54
2016-12-26T01:16:06.268Z,22.54
2016-12-26T01:17:06.644Z,22.45
2016-12-26T01:18:06.227Z,22.47
2016-12-26T01:19:06.281Z,22.47
2016-12-26T01:20:06.652Z,22.45
2016-12-26T01:21:06.342Z,22.47
2016-12-26T01:22:07.350Z,22.51
2016-12-26T01:23:05.943Z,22.55
2016-12-26T01:24:06.626Z,22.42
2016-12-26T01:25:06.635Z,22.42
2016-12-26T01:26:06.330Z,22.43
2016-12-26T01:27:06.329Z,22.42
2016-12-26T01:28:21.165Z,22.4
2016-12-26T01:29:05.976Z,22.49
2016-12-26T01:30:06.300Z,22.52
2016-12-26T01:31:06.721Z,22.36
2016-12-26T01:32:05.999Z,22.42
2016-12-26T01:33:07.829Z,22.42
2016-12-26T01:34:06.373Z,22.49
2016-12-26T01:35:06.640Z,22.52
2016-12-26T01:36:06.746Z,22.46
2016-12-26T01:37:06.391Z,22.47
2016-12-26T01:38:06.397Z,22.39
2016-12-26T01:39:06.712Z,22.37
2016-12-26T01:40:06.670Z,22.39
2016-12-26T01:41:06.364Z,22.39
2016-12-26T01:42:06.400Z,22.37
2016-12-26T01:43:06.788Z,22.36
2016-12-26T01:44:07.546Z,22.45
2016-12-26T01:45:06.440Z,22.42
2016-12-26T01:46:06.130Z,22.42
2016-12-26T01:47:06.399Z,22.39
2016-12-26T01:48:06.706Z,22.45
2016-12-26T01:49:06.511Z,22.33
2016-12-26T01:50:06.108Z,22.37
2016-12-26T01:51:06.735Z,22.37
2016-12-26T01:52:06.740Z,22.37
2016-12-26T01:53:06.486Z,22.47
2016-12-26T01:54:06.442Z,22.37
2016-12-26T01:55:07.474Z,22.33
2016-12-26T01:56:06.765Z,22.42
2016-12-26T01:57:06.506Z,22.36
2016-12-26T01:58:08.418Z,22.37
2016-12-26T01:59:06.882Z,22.42
2016-12-26T02:00:06.531Z,22.42
2016-12-26T02:01:06.844Z,22.43
2016-12-26T02:02:06.853Z,22.36
2016-12-26T02:03:06.181Z,22.39
2016-12-26T02:04:06.604Z,22.39
2016-12-26T02:05:06.196Z,22.45
2016-12-26T02:06:06.562Z,22.42
2016-12-26T02:07:06.566Z,22.42
2016-12-26T02:08:06.884Z,22.42
2016-12-26T02:09:06.859Z,22.45
2016-12-26T02:10:06.897Z,22.46
2016-12-26T02:11:06.593Z,22.49
2016-12-26T02:12:06.599Z,22.42
2016-12-26T02:13:06.702Z,22.3
2016-12-26T02:14:06.608Z,22.39
2016-12-26T02:15:06.617Z,22.45
2016-12-26T02:16:06.261Z,22.42
2016-12-26T02:17:07.682Z,22.42
2016-12-26T02:18:06.683Z,22.39
2016-12-26T02:19:06.276Z,22.42
2016-12-26T02:20:06.293Z,22.45
2016-12-26T02:21:06.918Z,22.42
2016-12-26T02:22:06.970Z,22.39
2016-12-26T02:23:06.665Z,22.45
2016-12-26T02:24:06.982Z,22.35
2016-12-26T02:25:06.681Z,22.28
2016-12-26T02:26:06.631Z,22.37
2016-12-26T02:27:06.327Z,22.42
2016-12-26T02:28:21.522Z,22.42
2016-12-26T02:29:06.989Z,22.43
2016-12-26T02:30:06.703Z,22.39
2016-12-26T02:31:06.661Z,22.43
2016-12-26T02:32:06.716Z,22.43
2016-12-26T02:33:06.723Z,22.42
2016-12-26T02:34:06.366Z,22.35
2016-12-26T02:35:06.688Z,22.36
2016-12-26T02:36:06.739Z,22.42
2016-12-26T02:37:07.066Z,22.45
2016-12-26T02:38:06.442Z,22.45
2016-12-26T02:39:07.931Z,22.31
2016-12-26T02:40:06.814Z,22.36
2016-12-26T02:41:06.718Z,22.43
2016-12-26T02:42:06.776Z,22.36
2016-12-26T02:43:06.781Z,22.49
2016-12-26T02:44:06.734Z,22.47
2016-12-26T02:45:06.790Z,22.4
2016-12-26T02:46:06.746Z,22.43
2016-12-26T02:47:06.446Z,22.43
2016-12-26T02:48:07.152Z,22.42
2016-12-26T02:49:06.815Z,22.42
2016-12-26T02:50:06.821Z,22.4
2016-12-26T02:51:06.825Z,22.39
2016-12-26T02:52:06.885Z,22.39
2016-12-26T02:53:07.202Z,22.43
2016-12-26T02:54:06.795Z,22.43
2016-12-26T02:55:07.214Z,22.43
2016-12-26T02:56:06.498Z,22.42
2016-12-26T02:57:06.911Z,22.45
2016-12-26T02:58:21.694Z,22.4
2016-12-26T02:59:07.025Z,22.45
2016-12-26T03:00:06.833Z,22.45
2016-12-26T03:01:07.198Z,22.42
2016-12-26T03:02:06.841Z,22.43
2016-12-26T03:03:06.535Z,22.39
2016-12-26T03:04:06.904Z,22.35
2016-12-26T03:05:07.172Z,22.43
2016-12-26T03:06:06.922Z,22.4
2016-12-26T03:07:07.184Z,22.42
2016-12-26T03:08:06.876Z,22.45
2016-12-26T03:09:07.245Z,22.45
2016-12-26T03:10:07.138Z,22.37
2016-12-26T03:11:07.208Z,22.46
2016-12-26T03:12:06.637Z,22.35
2016-12-26T03:13:07.216Z,22.43
2016-12-26T03:14:06.963Z,22.42
2016-12-26T03:15:07.278Z,22.39
2016-12-26T03:16:06.924Z,22.37
2016-12-26T03:17:06.616Z,22.45
2016-12-26T03:18:07.296Z,22.39
2016-12-26T03:19:06.990Z,22.39
2016-12-26T03:20:06.637Z,22.37
2016-12-26T03:21:07.408Z,22.43
2016-12-26T03:22:06.958Z,22.4
2016-12-26T03:23:06.651Z,22.4
2016-12-26T03:24:07.281Z,22.36
2016-12-26T03:25:07.342Z,22.36
2016-12-26T03:26:06.979Z,22.4
2016-12-26T03:27:07.304Z,22.4
2016-12-26T03:28:21.609Z,22.42
2016-12-26T03:29:06.998Z,22.42
2016-12-26T03:30:07.056Z,22.33
2016-12-26T03:31:07.062Z,22.37
2016-12-26T03:32:07.417Z,22.4
2016-12-26T03:33:07.096Z,22.39
2016-12-26T03:34:07.074Z,22.47
2016-12-26T03:35:07.398Z,22.46
2016-12-26T03:36:07.452Z,22.36
2016-12-26T03:37:07.042Z,22.39
2016-12-26T03:38:07.368Z,22.45
2016-12-26T03:39:07.470Z,22.43
2016-12-26T03:40:07.376Z,22.45
2016-12-26T03:41:07.433Z,22.35
2016-12-26T03:42:07.074Z,22.37
2016-12-26T03:43:07.640Z,22.43
2016-12-26T03:44:07.136Z,22.37
2016-12-26T03:45:07.455Z,22.35
2016-12-26T03:46:07.096Z,22.31
2016-12-26T03:47:07.154Z,22.4
2016-12-26T03:48:07.433Z,22.39
2016-12-26T03:49:07.166Z,22.37
2016-12-26T03:50:07.222Z,22.37
2016-12-26T03:51:07.440Z,22.42
2016-12-26T03:52:07.499Z,22.39
2016-12-26T03:53:07.239Z,22.35
2016-12-26T03:54:08.010Z,22.43
2016-12-26T03:55:06.893Z,22.39
2016-12-26T03:56:07.460Z,22.37
2016-12-26T03:57:07.165Z,22.46
2016-12-26T03:58:07.273Z,22.42
2016-12-26T03:59:07.541Z,22.42
2016-12-26T04:00:06.869Z,22.4
2016-12-26T04:01:06.924Z,22.39
2016-12-26T04:02:07.558Z,22.35
2016-12-26T04:03:07.252Z,22.37
2016-12-26T04:04:07.304Z,22.36
2016-12-26T04:05:08.365Z,22.46
2016-12-26T04:06:07.529Z,22.36
2016-12-26T04:07:07.690Z,22.45
2016-12-26T04:08:06.966Z,22.46
2016-12-26T04:09:07.600Z,22.39
2016-12-26T04:10:07.609Z,22.36
2016-12-26T04:11:07.300Z,22.36
2016-12-26T04:12:07.569Z,22.39
2016-12-26T04:13:07.261Z,22.31
2016-12-26T04:14:07.268Z,22.42
2016-12-26T04:15:07.327Z,22.39
2016-12-26T04:16:06.965Z,22.36
2016-12-26T04:17:07.076Z,22.27
2016-12-26T04:18:08.136Z,22.39
2016-12-26T04:19:07.398Z,22.42
2016-12-26T04:20:07.350Z,22.39
2016-12-26T04:21:07.308Z,22.37
2016-12-26T04:22:07.365Z,22.39
2016-12-26T04:23:07.372Z,22.42
2016-12-26T04:24:07.478Z,22.43
2016-12-26T04:25:07.646Z,22.37
2016-12-26T04:26:07.075Z,22.33
2016-12-26T04:27:07.101Z,22.3
2016-12-26T04:28:07.400Z,22.36
2016-12-26T04:29:08.189Z,22.33
2016-12-26T04:30:07.721Z,22.4
2016-12-26T04:31:07.418Z,22.35
2016-12-26T04:32:07.473Z,22.4
2016-12-26T04:33:07.688Z,22.35
2016-12-26T04:34:07.696Z,22.37
2016-12-26T04:35:07.391Z,22.36
2016-12-26T04:36:07.396Z,22.4
2016-12-26T04:37:07.189Z,22.4
2016-12-26T04:38:07.409Z,22.42
2016-12-26T04:39:07.514Z,22.36
2016-12-26T04:40:08.417Z,22.39
2016-12-26T04:41:07.424Z,22.4
2016-12-26T04:42:07.122Z,22.46
2016-12-26T04:43:07.175Z,22.36
2016-12-26T04:44:07.551Z,22.36
2016-12-26T04:45:07.189Z,22.37
2016-12-26T04:46:07.817Z,22.28
2016-12-26T04:47:07.513Z,22.28
2016-12-26T04:48:07.829Z,22.28
2016-12-26T04:49:07.475Z,22.28
2016-12-26T04:50:07.579Z,22.37
2016-12-26T04:51:08.348Z,22.3
2016-12-26T04:52:07.890Z,22.33
2016-12-26T04:53:07.862Z,22.28
2016-12-26T04:54:07.505Z,22.27
2016-12-26T04:55:07.606Z,22.28
2016-12-26T04:56:07.866Z,22.31
2016-12-26T04:57:07.519Z,22.3
2016-12-26T04:58:07.527Z,22.22
2016-12-26T04:59:07.894Z,22.27
2016-12-26T05:00:07.547Z,22.28
2016-12-26T05:01:07.547Z,22.25
2016-12-26T05:02:08.551Z,22.27
2016-12-26T05:03:07.607Z,22.28
2016-12-26T05:04:07.928Z,22.3
2016-12-26T05:05:07.567Z,22.31
2016-12-26T05:06:07.630Z,22.3
2016-12-26T05:07:07.946Z,22.39
2016-12-26T05:08:07.636Z,22.37
2016-12-26T05:09:07.642Z,22.36
2016-12-26T05:10:08.008Z,22.28
2016-12-26T05:11:07.702Z,22.31
2016-12-26T05:12:07.924Z,22.24
2016-12-26T05:13:08.667Z,22.25
2016-12-26T05:14:07.309Z,22.28
2016-12-26T05:15:07.631Z,22.25
2016-12-26T05:16:07.950Z,22.24
2016-12-26T05:17:08.054Z,22.36
2016-12-26T05:18:07.962Z,22.42
2016-12-26T05:19:07.442Z,22.42
2016-12-26T05:20:07.967Z,22.42
2016-12-26T05:21:07.663Z,22.46
2016-12-26T05:22:07.720Z,22.25
2016-12-26T05:23:07.725Z,22.27
2016-12-26T05:24:08.870Z,22.35
2016-12-26T05:25:07.426Z,22.36
2016-12-26T05:26:07.378Z,22.31
2016-12-26T05:27:08.012Z,22.4
2016-12-26T05:28:22.585Z,22.28
2016-12-26T05:29:07.763Z,22.43
2016-12-26T05:30:07.504Z,22.3
2016-12-26T05:31:07.460Z,22.24
2016-12-26T05:32:07.787Z,22.28
2016-12-26T05:33:09.075Z,22.27
2016-12-26T05:34:07.792Z,22.28
2016-12-26T05:35:08.950Z,22.3
2016-12-26T05:36:07.801Z,22.4
2016-12-26T05:37:07.526Z,22.4
2016-12-26T05:38:07.819Z,22.31
2016-12-26T05:39:07.820Z,22.39
2016-12-26T05:40:07.464Z,22.25
2016-12-26T05:41:08.146Z,22.35
2016-12-26T05:42:07.786Z,22.25
2016-12-26T05:43:07.843Z,22.24
2016-12-26T05:44:08.163Z,22.33
2016-12-26T05:45:07.858Z,22.28
2016-12-26T05:46:09.374Z,22.3
2016-12-26T05:47:07.507Z,22.33
2016-12-26T05:48:08.189Z,22.4
2016-12-26T05:49:07.832Z,22.28
2016-12-26T05:50:07.574Z,22.28
2016-12-26T05:51:08.203Z,22.27
2016-12-26T05:52:08.216Z,22.27
2016-12-26T05:53:08.202Z,22.28
2016-12-26T05:54:08.170Z,22.24
2016-12-26T05:55:08.179Z,22.33
2016-12-26T05:56:08.186Z,22.3
2016-12-26T05:57:09.549Z,22.3
2016-12-26T05:58:08.484Z,22.33
2016-12-26T05:59:07.991Z,22.3
2016-12-26T06:00:07.629Z,22.35
2016-12-26T06:01:08.266Z,22.3
2016-12-26T06:02:07.937Z,22.35
2016-12-26T06:03:07.913Z,22.33
2016-12-26T06:04:07.702Z,22.28
2016-12-26T06:05:08.237Z,22.31
2016-12-26T06:06:08.295Z,22.25
2016-12-26T06:07:08.248Z,22.27
2016-12-26T06:08:09.461Z,22.27
2016-12-26T06:09:07.996Z,22.28
2016-12-26T06:10:07.642Z,22.28
2016-12-26T06:11:07.645Z,22.28
2016-12-26T06:12:08.014Z,22.24
2016-12-26T06:13:08.053Z,22.31
2016-12-26T06:14:08.344Z,22.31
2016-12-26T06:15:07.985Z,22.31
2016-12-26T06:16:08.401Z,22.27
2016-12-26T06:17:08.360Z,22.31
2016-12-26T06:18:08.312Z,22.36
2016-12-26T06:19:09.406Z,22.31
2016-12-26T06:20:08.383Z,22.27
2016-12-26T06:21:07.706Z,22.31
2016-12-26T06:22:07.760Z,22.27
2016-12-26T06:23:07.768Z,22.27
2016-12-26T06:24:08.403Z,22.22
2016-12-26T06:25:07.733Z,22.25
2016-12-26T06:26:07.786Z,22.27
2016-12-26T06:27:08.053Z,22.27
2016-12-26T06:28:08.165Z,22.22
2016-12-26T06:29:08.217Z,22.3
2016-12-26T06:30:09.570Z,22.33
2016-12-26T06:31:08.076Z,22.24
2016-12-26T06:32:08.131Z,22.22
2016-12-26T06:33:08.450Z,22.22
2016-12-26T06:34:08.199Z,22.33
2016-12-26T06:35:08.250Z,22.27
2016-12-26T06:36:07.843Z,22.33
2016-12-26T06:37:08.501Z,22.39
2016-12-26T06:38:08.168Z,22.33
2016-12-26T06:39:08.437Z,22.27
2016-12-26T06:40:08.230Z,22.28
2016-12-26T06:41:08.182Z,22.33
2016-12-26T06:42:08.245Z,22.31
2016-12-26T06:43:08.244Z,22.3
2016-12-26T06:44:08.201Z,22.33
2016-12-26T06:45:08.162Z,22.25
2016-12-26T06:46:08.167Z,22.35
2016-12-26T06:47:08.534Z,22.33
2016-12-26T06:48:07.913Z,22.35
2016-12-26T06:49:08.543Z,22.25
2016-12-26T06:50:08.502Z,22.27
2016-12-26T06:51:08.508Z,22.35
2016-12-26T06:52:07.935Z,22.35
2016-12-26T06:53:07.893Z,22.25
2016-12-26T06:54:07.997Z,22.2
2016-12-26T06:55:08.220Z,22.28
2016-12-26T06:56:08.638Z,22.28
2016-12-26T06:57:08.377Z,22.28
2016-12-26T06:58:08.268Z,22.25
2016-12-26T06:59:07.931Z,22.36
2016-12-26T07:00:08.253Z,22.28
2016-12-26T07:01:08.547Z,22.27
2016-12-26T07:02:08.621Z,22.28
2016-12-26T07:03:08.263Z,22.27
2016-12-26T07:04:08.373Z,22.33
2016-12-26T07:05:08.641Z,22.3
2016-12-26T07:06:08.019Z,22.27
2016-12-26T07:07:08.343Z,22.22
2016-12-26T07:08:08.028Z,22.3
2016-12-26T07:09:08.613Z,22.27
2016-12-26T07:10:08.358Z,22.25
2016-12-26T07:11:08.365Z,22.22
2016-12-26T07:12:08.865Z,22.27
2016-12-26T07:13:08.011Z,22.35
2016-12-26T07:14:08.428Z,22.33
2016-12-26T07:15:08.382Z,22.28
2016-12-26T07:16:08.341Z,22.3
2016-12-26T07:17:08.344Z,22.25
2016-12-26T07:18:08.743Z,22.22
2016-12-26T07:19:08.677Z,22.21
2016-12-26T07:20:08.049Z,22.27
2016-12-26T07:21:08.470Z,22.24
2016-12-26T07:22:08.060Z,22.25
2016-12-26T07:23:08.968Z,22.24
2016-12-26T07:24:08.386Z,22.21
2016-12-26T07:25:08.496Z,22.27
2016-12-26T07:26:08.115Z,22.28
2016-12-26T07:27:08.718Z,22.45
2016-12-26T07:28:23.000Z,22.46
2016-12-26T07:29:08.419Z,22.6
2016-12-26T07:30:08.939Z,22.72
2016-12-26T07:31:08.739Z,22.85
2016-12-26T07:32:08.896Z,22.91
2016-12-26T07:33:08.489Z,23.01
2016-12-26T07:34:09.233Z,23.27
2016-12-26T07:35:08.507Z,23.38
2016-12-26T07:36:08.154Z,23.4
2016-12-26T07:37:08.146Z,23.53
2016-12-26T07:38:08.258Z,23.69
2016-12-26T07:39:08.575Z,23.72
2016-12-26T07:40:08.894Z,23.76
2016-12-26T07:41:08.588Z,23.83
2016-12-26T07:42:08.801Z,23.83
2016-12-26T07:43:08.547Z,23.98
2016-12-26T07:44:08.509Z,24.08
2016-12-26T07:45:09.210Z,24.09
2016-12-26T07:46:08.826Z,24.18
2016-12-26T07:47:08.570Z,24.25
2016-12-26T07:48:08.528Z,24.2
2016-12-26T07:49:08.272Z,24.28
2016-12-26T07:50:08.537Z,24.32
2016-12-26T07:51:08.236Z,24.37
2016-12-26T07:52:08.556Z,24.4
2016-12-26T07:53:08.923Z,24.35
2016-12-26T07:54:08.878Z,24.52
2016-12-26T07:55:08.985Z,24.5
2016-12-26T07:56:09.478Z,24.47
2016-12-26T07:57:08.580Z,24.6
2016-12-26T07:58:24.066Z,24.64
2016-12-26T07:59:08.910Z,24.65
2016-12-26T08:00:08.699Z,24.55
2016-12-26T08:01:08.658Z,24.62
2016-12-26T08:02:08.984Z,24.68
2016-12-26T08:03:09.031Z,24.65
2016-12-26T08:04:08.677Z,24.78
2016-12-26T08:05:08.943Z,24.76
2016-12-26T08:06:08.956Z,24.77
2016-12-26T08:07:10.149Z,24.73
2016-12-26T08:08:08.700Z,24.73
2016-12-26T08:09:09.074Z,24.71
2016-12-26T08:10:08.663Z,24.78
2016-12-26T08:11:08.408Z,24.87
2016-12-26T08:12:08.676Z,24.85
2016-12-26T08:13:08.733Z,24.87
2016-12-26T08:14:08.689Z,24.8
2016-12-26T08:15:09.064Z,24.8
2016-12-26T08:16:09.014Z,24.81
2016-12-26T08:17:09.022Z,24.76
2016-12-26T08:18:10.425Z,24.81
2016-12-26T08:19:08.462Z,24.84
2016-12-26T08:20:09.678Z,24.69
2016-12-26T08:21:08.421Z,24.83
2016-12-26T08:22:08.739Z,24.87
2016-12-26T08:23:09.110Z,24.85
2016-12-26T08:24:08.538Z,24.81
2016-12-26T08:25:09.077Z,24.77
2016-12-26T08:26:08.817Z,24.85
2016-12-26T08:27:08.872Z,24.84
2016-12-26T08:28:23.345Z,24.78
2016-12-26T08:29:10.583Z,24.83
2016-12-26T08:30:08.791Z,24.9
2016-12-26T08:31:09.498Z,24.84
2016-12-26T08:32:08.806Z,24.95
2016-12-26T08:33:08.861Z,24.83
2016-12-26T08:34:09.132Z,24.87
2016-12-26T08:35:08.610Z,24.83
2016-12-26T08:36:08.878Z,24.91
2016-12-26T08:37:09.261Z,24.9
2016-12-26T08:38:09.202Z,24.83
2016-12-26T08:39:09.177Z,24.87
2016-12-26T08:40:08.863Z,24.9
2016-12-26T08:41:08.914Z,24.88
2016-12-26T08:42:09.824Z,24.93
2016-12-26T08:43:08.929Z,24.93
2016-12-26T08:44:09.194Z,25.02
2016-12-26T08:45:09.201Z,25.05
2016-12-26T08:46:08.684Z,25.05
2016-12-26T08:47:08.956Z,24.98
2016-12-26T08:48:09.009Z,25.08
2016-12-26T08:49:08.919Z,24.93
2016-12-26T08:50:08.710Z,24.98
2016-12-26T08:51:08.929Z,24.95
2016-12-26T08:52:08.988Z,24.99
2016-12-26T08:53:10.405Z,24.98
2016-12-26T08:54:09.000Z,25
2016-12-26T08:55:09.009Z,25
2016-12-26T08:56:09.376Z,25
2016-12-26T08:57:08.706Z,25
2016-12-26T08:58:09.028Z,25.14
2016-12-26T08:59:08.671Z,25.08
2016-12-26T09:00:10.151Z,25.05
2016-12-26T09:01:08.731Z,25.2
2016-12-26T09:02:09.002Z,25.21
2016-12-26T09:03:09.008Z,25.23
2016-12-26T09:04:09.064Z,25.25
2016-12-26T09:05:09.385Z,25.2
2016-12-26T09:06:09.342Z,25.27
2016-12-26T09:07:08.769Z,25.36
2016-12-26T09:08:09.457Z,25.33
2016-12-26T09:09:09.048Z,25.38
2016-12-26T09:10:09.105Z,25.43
2016-12-26T09:11:09.501Z,25.45
2016-12-26T09:12:08.806Z,25.5
2016-12-26T09:13:09.486Z,25.51
2016-12-26T09:14:09.182Z,25.43
2016-12-26T09:15:08.826Z,25.52
2016-12-26T09:16:09.407Z,25.54
2016-12-26T09:17:09.164Z,25.43
2016-12-26T09:18:09.156Z,25.51
2016-12-26T09:19:09.115Z,25.6
2016-12-26T09:20:09.223Z,25.67
2016-12-26T09:21:09.448Z,25.6
2016-12-26T09:22:10.709Z,25.69
2016-12-26T09:23:08.881Z,25.75
2016-12-26T09:24:09.738Z,25.72
2016-12-26T09:25:09.207Z,25.83
2016-12-26T09:26:09.362Z,25.91
2016-12-26T09:27:09.219Z,25.83
2016-12-26T09:28:09.280Z,25.85
2016-12-26T09:29:09.548Z,25.79
2016-12-26T09:30:09.503Z,25.73
2016-12-26T09:31:09.196Z,25.83
2016-12-26T09:32:09.250Z,25.82
2016-12-26T09:33:09.209Z,25.76
2016-12-26T09:34:09.528Z,25.85
2016-12-26T09:35:10.076Z,25.76
2016-12-26T09:36:09.544Z,25.76
2016-12-26T09:37:09.826Z,25.9
2016-12-26T09:38:09.607Z,25.9
2016-12-26T09:39:09.303Z,25.91
2016-12-26T09:40:09.362Z,25.88
2016-12-26T09:41:09.679Z,25.87
2016-12-26T09:42:09.274Z,25.88
2016-12-26T09:43:09.015Z,25.87
2016-12-26T09:44:09.598Z,26.02
2016-12-26T09:45:09.297Z,25.97
2016-12-26T09:46:08.989Z,25.94
2016-12-26T09:47:09.354Z,25.98
2016-12-26T09:48:10.316Z,26.05
2016-12-26T09:49:09.207Z,26.01
2016-12-26T09:50:09.644Z,26.15
2016-12-26T09:51:09.746Z,25.98
2016-12-26T09:52:09.754Z,26.1
2016-12-26T09:53:09.348Z,26.06
2016-12-26T09:54:09.091Z,26.13
2016-12-26T09:55:09.366Z,25.99
2016-12-26T09:56:09.419Z,26.05
2016-12-26T09:57:09.087Z,25.98
2016-12-26T09:58:09.068Z,26.05
2016-12-26T09:59:10.592Z,26.02
2016-12-26T10:00:09.449Z,26.17
2016-12-26T10:01:09.142Z,26.09
2016-12-26T10:02:09.459Z,26.1
2016-12-26T10:03:09.157Z,26.12
2016-12-26T10:04:09.426Z,26.18
2016-12-26T10:05:09.167Z,26.17
2016-12-26T10:06:09.487Z,26.1
2016-12-26T10:07:09.807Z,26.06
2016-12-26T10:08:09.453Z,26.2
2016-12-26T10:09:09.824Z,26.18
2016-12-26T10:10:09.468Z,26.2
2016-12-26T10:11:09.210Z,26.18
2016-12-26T10:12:09.528Z,26.18
2016-12-26T10:13:09.490Z,26.23
2016-12-26T10:14:09.284Z,26.43
2016-12-26T10:15:09.503Z,26.43
2016-12-26T10:16:09.509Z,26.39
2016-12-26T10:17:09.927Z,26.35
2016-12-26T10:18:09.572Z,26.28
2016-12-26T10:19:09.531Z,26.35
2016-12-26T10:20:09.273Z,26.36
2016-12-26T10:21:11.061Z,26.44
2016-12-26T10:22:09.606Z,26.36
2016-12-26T10:23:09.922Z,26.29
2016-12-26T10:24:09.615Z,26.3
2016-12-26T10:25:09.621Z,26.3
2016-12-26T10:26:09.892Z,26.18
2016-12-26T10:27:10.002Z,26.25
2016-12-26T10:28:10.283Z,26.2
2016-12-26T10:29:09.711Z,26.23
2016-12-26T10:30:09.664Z,26.28
2016-12-26T10:31:09.614Z,26.3
2016-12-26T10:32:09.720Z,26.18
2016-12-26T10:33:09.366Z,26.21
2016-12-26T10:34:10.000Z,26.17
2016-12-26T10:35:09.955Z,26.26
2016-12-26T10:36:09.391Z,26.29
2016-12-26T10:37:09.657Z,26.3
2016-12-26T10:38:09.663Z,26.3
2016-12-26T10:39:10.571Z,26.39
2016-12-26T10:40:09.785Z,26.36
2016-12-26T10:41:09.886Z,26.35
2016-12-26T10:42:09.692Z,26.39
2016-12-26T10:43:09.750Z,26.37
2016-12-26T10:44:09.859Z,26.35
2016-12-26T10:45:09.711Z,26.35
2016-12-26T10:46:09.463Z,26.37
2016-12-26T10:47:10.140Z,26.44
2016-12-26T10:48:10.099Z,26.4
2016-12-26T10:49:10.105Z,26.36
2016-12-26T10:50:10.815Z,26.43
2016-12-26T10:51:09.785Z,26.3
2016-12-26T10:52:10.102Z,26.5
2016-12-26T10:53:09.869Z,26.51
2016-12-26T10:54:09.777Z,26.55
2016-12-26T10:55:09.530Z,26.52
2016-12-26T10:56:09.481Z,26.51
2016-12-26T10:57:10.163Z,26.5
2016-12-26T10:58:10.170Z,26.47
2016-12-26T10:59:09.911Z,26.47
2016-12-26T11:00:09.871Z,26.52
2016-12-26T11:01:10.621Z,26.45
2016-12-26T11:02:10.199Z,26.54
2016-12-26T11:03:10.293Z,26.58
2016-12-26T11:04:09.635Z,26.5
2016-12-26T11:05:09.545Z,26.45
2016-12-26T11:06:09.913Z,26.51
2016-12-26T11:07:09.607Z,26.58
2016-12-26T11:08:09.879Z,26.51
2016-12-26T11:09:09.886Z,26.48
2016-12-26T11:10:09.630Z,26.47
2016-12-26T11:11:10.212Z,26.45
2016-12-26T11:12:09.643Z,26.43
2016-12-26T11:13:10.014Z,26.48
2016-12-26T11:14:10.874Z,26.35
2016-12-26T11:15:09.931Z,26.36
2016-12-26T11:16:10.300Z,26.36
2016-12-26T11:17:09.996Z,26.4
2016-12-26T11:18:09.638Z,26.43
2016-12-26T11:19:10.008Z,26.39
2016-12-26T11:20:09.967Z,26.4
2016-12-26T11:21:10.332Z,26.43
2016-12-26T11:22:10.298Z,26.44
2016-12-26T11:23:10.088Z,26.43
2016-12-26T11:24:09.680Z,26.45
2016-12-26T11:25:11.054Z,26.52
2016-12-26T11:26:09.749Z,26.54
2016-12-26T11:27:09.701Z,26.45
2016-12-26T11:28:10.336Z,26.47
2016-12-26T11:29:10.339Z,26.48
2016-12-26T11:30:10.089Z,26.37
2016-12-26T11:31:10.045Z,26.43
2016-12-26T11:32:10.107Z,26.33
2016-12-26T11:33:10.109Z,26.37
2016-12-26T11:34:10.125Z,26.33
2016-12-26T11:35:10.446Z,26.3
2016-12-26T11:36:11.268Z,26.4
2016-12-26T11:37:10.137Z,26.33
2016-12-26T11:38:10.148Z,26.33
2016-12-26T11:39:10.204Z,26.44
2016-12-26T11:40:10.155Z,26.57
2016-12-26T11:41:09.804Z,26.5
2016-12-26T11:42:09.814Z,26.5
2016-12-26T11:43:10.134Z,26.47
2016-12-26T11:44:10.139Z,26.4
2016-12-26T11:45:10.246Z,26.36
2016-12-26T11:46:09.939Z,26.37
2016-12-26T11:47:11.314Z,26.44
2016-12-26T11:48:10.219Z,26.37
2016-12-26T11:49:10.177Z,26.39
2016-12-26T11:50:10.191Z,26.39
2016-12-26T11:51:10.502Z,26.47
2016-12-26T11:52:09.884Z,26.52
2016-12-26T11:53:10.306Z,26.47
2016-12-26T11:54:10.317Z,26.37
2016-12-26T11:55:10.584Z,26.5
2016-12-26T11:56:10.231Z,26.45
2016-12-26T11:57:10.281Z,26.55
2016-12-26T11:58:11.691Z,26.58
2016-12-26T11:59:10.247Z,26.52
2016-12-26T12:00:09.999Z,26.51
2016-12-26T12:01:09.950Z,26.51
2016-12-26T12:02:10.370Z,26.43
2016-12-26T12:03:10.592Z,26.47
2016-12-26T12:04:10.284Z,26.51
2016-12-26T12:05:10.348Z,26.44
2016-12-26T12:06:10.347Z,26.51
2016-12-26T12:07:10.145Z,26.44
2016-12-26T12:08:10.340Z,26.48
2016-12-26T12:09:11.974Z,26.44
2016-12-26T12:10:10.330Z,26.47
2016-12-26T12:11:10.385Z,26.5
2016-12-26T12:12:10.399Z,26.69
2016-12-26T12:13:10.716Z,26.5
2016-12-26T12:14:10.458Z,26.55
2016-12-26T12:15:10.400Z,26.58
2016-12-26T12:16:10.424Z,26.52
2016-12-26T12:17:10.744Z,26.51
2016-12-26T12:18:10.802Z,26.5
2016-12-26T12:19:10.134Z,26.47
2016-12-26T12:20:10.454Z,26.47
2016-12-26T12:21:10.724Z,26.45
2016-12-26T12:22:10.418Z,26.51
2016-12-26T12:23:10.741Z,26.52
2016-12-26T12:24:10.483Z,26.6
2016-12-26T12:25:10.201Z,26.57
2016-12-26T12:26:10.134Z,26.52
2016-12-26T12:27:10.506Z,26.57
2016-12-26T12:28:25.390Z,26.54
2016-12-26T12:29:10.834Z,26.5
2016-12-26T12:30:10.577Z,26.52
2016-12-26T12:31:10.271Z,26.54
2016-12-26T12:32:10.491Z,26.45
2016-12-26T12:33:10.186Z,26.47
2016-12-26T12:34:10.610Z,26.37
2016-12-26T12:35:10.644Z,26.37
2016-12-26T12:36:10.657Z,26.32
2016-12-26T12:37:10.268Z,26.37
2016-12-26T12:38:10.850Z,26.33
2016-12-26T12:39:10.956Z,26.36
2016-12-26T12:40:10.962Z,26.52
2016-12-26T12:41:10.974Z,26.51
2016-12-26T12:42:10.615Z,26.51
2016-12-26T12:43:10.317Z,26.47
2016-12-26T12:44:10.993Z,26.44
2016-12-26T12:45:10.587Z,26.47
2016-12-26T12:46:10.625Z,26.37
2016-12-26T12:47:11.013Z,26.33
2016-12-26T12:48:10.610Z,26.33
2016-12-26T12:49:11.031Z,26.37
2016-12-26T12:50:10.628Z,26.33
2016-12-26T12:51:11.042Z,26.5
2016-12-26T12:52:10.328Z,26.45
2016-12-26T12:53:10.694Z,26.51
2016-12-26T12:54:10.966Z,26.36
2016-12-26T12:55:11.024Z,26.37